Iris Victoria — V7TS8 — position and weather

sailwx.info

Track history (hours):
 
Tides and Currents Weather Stations Pressure Air Temp Water Temp Dewpoint Dewpoint Depression Visibility Wind Speed Wind Dir Waves Ship Positions

Iris Victoria

Last reported at 2015-Jun-21 22:27 UTC. Time now 2015-Jul-29 13:32 UTC.
Position N 36°09' E 014°54'.
Warning: this ship's position is 37 days out of date.

Length 228 m; draft 13.1 m.

Type: Ship (hazmat cat B). MMSI: 538003876.

Date/timePositionNaut miles runAvg speedWind from/ knotsBaromVisibWave heightAir tempDewpointWater temp
2015-Jun-21 22:27N 36°09' E 014°54'1415.1
2015-Jun-21 21:33N 36°13' E 014°38'1515.1
2015-Jun-21 20:34N 36°16' E 014°20'1515.1
2015-Jun-21 19:34N 36°19' E 014°02'1515.0
2015-Jun-21 18:34N 36°25' E 013°44'1515.0
2015-Jun-21 17:33N 36°31' E 013°27'1515.1
2015-Jun-21 16:33N 36°37' E 013°10'1515.2
2015-Jun-21 15:34N 36°43' E 012°52'2115.4
2015-Jun-21 14:11N 36°51' E 012°28'41114.7
2015-Jun-20 10:17N 37°31' E 003°55'1615.3
2015-Jun-20 09:15N 37°31' E 003°35'1515.4
2015-Jun-20 08:15N 37°30' E 003°15'1115.5
2015-Jun-20 07:33N 37°30' E 003°02'1715.5
2015-Jun-20 06:27N 37°27' E 002°41'1415.3
2015-Jun-20 05:33N 37°24' E 002°24'3115.4
2015-Jun-20 03:33N 37°16' E 001°46'1515.2
2015-Jun-20 02:33N 37°11' E 001°28'1514.8
2015-Jun-20 01:33N 37°07' E 001°10'1714.9
2015-Jun-20 00:26N 37°01' E 000°51'1315.3
2015-Jun-19 23:33N 36°57' E 000°35'1515.6
2015-Jun-19 22:33N 36°52' E 000°16'1615.6
2015-Jun-19 21:33N 36°47' W 000°02'1615.5
2015-Jun-19 20:33N 36°40' W 000°20'1615.3
2015-Jun-19 19:32N 36°34' W 000°37'1515.1
2015-Jun-19 18:33N 36°29' W 000°55'1414.5
2015-Jun-19 17:33N 36°28' W 001°13'1515.2
2015-Jun-19 16:33N 36°23' W 001°31'1915.3
2015-Jun-19 15:20N 36°17' W 001°53'1815.1
2015-Jun-19 14:07N 36°14' W 002°15'915.2
2015-Jun-19 13:33N 36°13' W 002°26'1515.1
2015-Jun-19 12:33N 36°11' W 002°44'11815.7
2015-Jun-19 05:05N 35°59' W 005°09'917.3
2015-Jun-19 04:33N 35°58' W 005°20'10313.8
2015-Jun-18 21:07N 36°06' W 007°27'2914.5
2015-Jun-18 19:05N 36°14' W 008°02'1214.7
2015-Jun-18 18:17N 36°16' W 008°17'1114.9
2015-Jun-18 17:30N 36°19' W 008°31'1414.9
2015-Jun-18 16:33N 36°23' W 008°47'1514.9
2015-Jun-18 15:33N 36°27' W 009°05'1514.7
2015-Jun-18 14:33N 36°32' W 009°22'2914.5
2015-Jun-18 12:33N 36°57' W 009°41'1515.3
2015-Jun-18 11:33N 37°12' W 009°46'1515.6
2015-Jun-18 10:33N 37°27' W 009°50'1515.3
2015-Jun-18 09:33N 37°42' W 009°55'1515.3
2015-Jun-18 08:33N 37°57' W 009°59'1615.5
2015-Jun-18 07:33N 38°12' W 010°03'1515.1
2015-Jun-18 06:33N 38°26' W 010°07'1515.1
2015-Jun-18 05:33N 38°41' W 010°12'1515.1
2015-Jun-18 04:33N 38°56' W 010°12'1514.9
2015-Jun-18 03:32N 39°11' W 010°12'1514.9
2015-Jun-18 02:33N 39°26' W 010°11'1515.4
2015-Jun-18 01:33N 39°42' W 010°11'1615.4
2015-Jun-18 00:33N 39°57' W 010°11'1615.6
2015-Jun-17 23:33N 40°13' W 010°11'1515.4
2015-Jun-17 22:33N 40°28' W 010°11'1515.1
2015-Jun-17 21:33N 40°43' W 010°11'1615.6
2015-Jun-17 20:33N 40°59' W 010°12'1515.3
2015-Jun-17 19:33N 41°14' W 010°12'1615.4
2015-Jun-17 18:32N 41°29' W 010°11'1515.1
2015-Jun-17 17:31N 41°45' W 010°12'1515.0
2015-Jun-17 16:33N 41°59' W 010°11'47014.6
2015-Jun-16 08:24N 49°04' W 005°20'1413.4
2015-Jun-16 07:23N 49°10' W 005°02'1613.1
2015-Jun-16 06:11N 49°19' W 004°42'2211.9
2015-Jun-16 04:22N 49°30' W 004°13'4213.3
2015-Jun-16 01:12N 49°52' W 003°18'1015.3
2015-Jun-16 00:32N 49°57' W 003°04'1515.3
2015-Jun-15 23:31N 50°02' W 002°41'1414.6
2015-Jun-15 22:33N 50°05' W 002°20'1412.9
2015-Jun-15 21:30N 50°09' W 001°59'1010.9
2015-Jun-15 20:32N 50°12' W 001°44'2410.1
2015-Jun-15 18:12N 50°18' W 001°08'711.1
2015-Jun-15 17:33N 50°20' W 000°58'1312.8
2015-Jun-15 16:33N 50°23' W 000°38'1414.1
2015-Jun-15 15:33N 50°27' W 000°17'1714.8
2015-Jun-15 14:24N 50°32' E 000°09'1214.8
2015-Jun-15 13:33N 50°35' E 000°28'1414.1
2015-Jun-15 12:33N 50°41' E 000°48'1412.8
2015-Jun-15 11:30N 50°49' E 001°06'1111.6
2015-Jun-15 10:33N 50°56' E 001°19'1111.6
2015-Jun-15 09:33N 51°04' E 001°32'1313.0
2015-Jun-15 08:33N 51°14' E 001°46'1515.0
2015-Jun-15 07:33N 51°27' E 001°57'1515.3
2015-Jun-15 06:33N 51°39' E 002°13'1614.8
2015-Jun-15 05:30N 51°50' E 002°30'1313.5
2015-Jun-15 04:34N 52°03' E 002°31'1712.6
2015-Jun-15 03:14N 52°18' E 002°43'4210.7
2015-Jun-14 23:18N 52°31' E 003°49'1013.3
2015-Jun-14 22:33N 52°31' E 004°05'1312.5
2015-Jun-14 21:33N 52°29' E 004°25'7 7.1
2015-Jun-14 20:34N 52°28' E 004°37'5 4.7
2015-Jun-14 19:34N 52°26' E 004°43'3 2.6
2015-Jun-14 18:33N 52°24' E 004°46'0 0.0
2015-Jun-14 17:33N 52°24' E 004°46'0 0.0
2015-Jun-14 16:33N 52°24' E 004°46'0 0.0
2015-Jun-14 15:33N 52°24' E 004°46'0 0.0
2015-Jun-14 14:33N 52°24' E 004°46'0 0.0
2015-Jun-14 13:33N 52°24' E 004°46'0 0.0
2015-Jun-14 12:33N 52°24' E 004°46'0 0.0
2015-Jun-14 11:33N 52°24' E 004°46'0 0.0
2015-Jun-14 10:33N 52°24' E 004°46'0 0.0
2015-Jun-14 09:33N 52°24' E 004°46'0 0.0
2015-Jun-14 08:30N 52°24' E 004°46'0 0.0
2015-Jun-14 07:33N 52°24' E 004°46'0 0.0
2015-Jun-14 06:33N 52°24' E 004°46'0 0.0
2015-Jun-14 05:33N 52°24' E 004°46'0 0.0
2015-Jun-14 04:33N 52°24' E 004°46'0 0.0
2015-Jun-14 03:33N 52°24' E 004°46'0 0.0
2015-Jun-14 01:33N 52°24' E 004°46'0 0.0
2015-Jun-14 00:30N 52°24' E 004°46'0 0.0
2015-Jun-13 23:33N 52°24' E 004°46'0 0.0
2015-Jun-13 22:33N 52°24' E 004°46'0 0.0
2015-Jun-13 21:33N 52°24' E 004°46'0 0.0
2015-Jun-13 20:33N 52°24' E 004°46'0 0.0
2015-Jun-13 19:33N 52°24' E 004°46'0 0.0
2015-Jun-13 18:33N 52°24' E 004°46'0 0.0
2015-Jun-13 17:33N 52°24' E 004°46'0 0.0
2015-Jun-13 16:33N 52°24' E 004°46'0 0.0
2015-Jun-13 15:33N 52°24' E 004°46'0 0.0
2015-Jun-13 14:33N 52°24' E 004°46'0 0.0
2015-Jun-13 13:33N 52°24' E 004°46'0 0.0
2015-Jun-13 12:33N 52°24' E 004°46'0 0.0
2015-Jun-13 11:33N 52°24' E 004°46'0 0.0
2015-Jun-13 10:33N 52°24' E 004°46'0 0.0
2015-Jun-13 09:33N 52°24' E 004°46'0 0.0
2015-Jun-13 08:33N 52°24' E 004°46'0 0.0
2015-Jun-13 07:33N 52°24' E 004°46'0 0.0
2015-Jun-13 06:33N 52°24' E 004°46'0 0.0
2015-Jun-13 05:33N 52°24' E 004°46'0 0.0
2015-Jun-13 04:33N 52°24' E 004°46'0 0.0
2015-Jun-13 03:33N 52°24' E 004°46'0 0.0
2015-Jun-13 02:33N 52°24' E 004°46'0 0.0
2015-Jun-13 01:33N 52°24' E 004°46'0 0.0
2015-Jun-13 00:33N 52°24' E 004°46'0 0.0
2015-Jun-12 23:33N 52°24' E 004°46'0 0.0
2015-Jun-12 22:33N 52°24' E 004°46'0 0.0
2015-Jun-12 21:33N 52°24' E 004°46'0 0.0
2015-Jun-12 20:33N 52°24' E 004°46'0 0.0
2015-Jun-12 19:33N 52°24' E 004°46'0 0.0
2015-Jun-12 18:33N 52°24' E 004°46'0 0.0
2015-Jun-12 17:33N 52°24' E 004°46'0 0.0
2015-Jun-12 16:33N 52°24' E 004°46'0 0.0
2015-Jun-12 15:33N 52°24' E 004°46'0 0.0
2015-Jun-12 14:33N 52°24' E 004°46'0 0.0
2015-Jun-12 13:33N 52°24' E 004°46'0 0.0
2015-Jun-12 12:33N 52°24' E 004°46'0 0.0
2015-Jun-12 11:33N 52°24' E 004°46'0 0.0
2015-Jun-12 10:33N 52°24' E 004°46'0 0.0
2015-Jun-12 09:33N 52°24' E 004°46'0 0.0
2015-Jun-12 08:33N 52°24' E 004°46'0 0.0
2015-Jun-12 07:33N 52°24' E 004°46'0 0.0
2015-Jun-12 06:33N 52°24' E 004°46'0 0.0
2015-Jun-12 05:33N 52°24' E 004°46'0 0.0
2015-Jun-12 04:33N 52°24' E 004°46'0 0.0
2015-Jun-12 03:33N 52°24' E 004°46'0 0.0
2015-Jun-12 02:33N 52°24' E 004°46'0 0.0
2015-Jun-12 01:33N 52°24' E 004°46'0 0.0
2015-Jun-12 00:33N 52°24' E 004°46'0 0.0
2015-Jun-11 23:33N 52°24' E 004°46'0 0.0
2015-Jun-11 22:33N 52°24' E 004°46'  
Track history (hours):
 
Tides and Currents Weather Stations Pressure Air Temp Water Temp Dewpoint Dewpoint Depression Visibility Wind Speed Wind Dir Waves Ship Positions

Iris Victoria

Last reported at 2015-Jun-21 22:27 UTC. Time now 2015-Jul-29 13:32 UTC.
Position N 36°09' E 014°54'.
Warning: this ship's position is 37 days out of date.

Length 228 m; draft 13.1 m.

Type: Ship (hazmat cat B). MMSI: 538003876.

Date/timePositionNaut miles runAvg speedWind from/ knotsBaromVisibWave heightAir tempDewpointWater temp
2015-Jun-21 22:27N 36°09' E 014°54'1415.1
2015-Jun-21 21:33N 36°13' E 014°38'1515.1
2015-Jun-21 20:34N 36°16' E 014°20'1515.1
2015-Jun-21 19:34N 36°19' E 014°02'1515.0
2015-Jun-21 18:34N 36°25' E 013°44'1515.0
2015-Jun-21 17:33N 36°31' E 013°27'1515.1
2015-Jun-21 16:33N 36°37' E 013°10'1515.2
2015-Jun-21 15:34N 36°43' E 012°52'2115.4
2015-Jun-21 14:11N 36°51' E 012°28'41114.7
2015-Jun-20 10:17N 37°31' E 003°55'1615.3
2015-Jun-20 09:15N 37°31' E 003°35'1515.4
2015-Jun-20 08:15N 37°30' E 003°15'1115.5
2015-Jun-20 07:33N 37°30' E 003°02'1715.5
2015-Jun-20 06:27N 37°27' E 002°41'1415.3
2015-Jun-20 05:33N 37°24' E 002°24'3115.4
2015-Jun-20 03:33N 37°16' E 001°46'1515.2
2015-Jun-20 02:33N 37°11' E 001°28'1514.8
2015-Jun-20 01:33N 37°07' E 001°10'1714.9
2015-Jun-20 00:26N 37°01' E 000°51'1315.3
2015-Jun-19 23:33N 36°57' E 000°35'1515.6
2015-Jun-19 22:33N 36°52' E 000°16'1615.6
2015-Jun-19 21:33N 36°47' W 000°02'1615.5
2015-Jun-19 20:33N 36°40' W 000°20'1615.3
2015-Jun-19 19:32N 36°34' W 000°37'1515.1
2015-Jun-19 18:33N 36°29' W 000°55'1414.5
2015-Jun-19 17:33N 36°28' W 001°13'1515.2
2015-Jun-19 16:33N 36°23' W 001°31'1915.3
2015-Jun-19 15:20N 36°17' W 001°53'1815.1
2015-Jun-19 14:07N 36°14' W 002°15'915.2
2015-Jun-19 13:33N 36°13' W 002°26'1515.1
2015-Jun-19 12:33N 36°11' W 002°44'11815.7
2015-Jun-19 05:05N 35°59' W 005°09'917.3
2015-Jun-19 04:33N 35°58' W 005°20'10313.8
2015-Jun-18 21:07N 36°06' W 007°27'2914.5
2015-Jun-18 19:05N 36°14' W 008°02'1214.7
2015-Jun-18 18:17N 36°16' W 008°17'1114.9
2015-Jun-18 17:30N 36°19' W 008°31'1414.9
2015-Jun-18 16:33N 36°23' W 008°47'1514.9
2015-Jun-18 15:33N 36°27' W 009°05'1514.7
2015-Jun-18 14:33N 36°32' W 009°22'2914.5
2015-Jun-18 12:33N 36°57' W 009°41'1515.3
2015-Jun-18 11:33N 37°12' W 009°46'1515.6
2015-Jun-18 10:33N 37°27' W 009°50'1515.3
2015-Jun-18 09:33N 37°42' W 009°55'1515.3
2015-Jun-18 08:33N 37°57' W 009°59'1615.5
2015-Jun-18 07:33N 38°12' W 010°03'1515.1
2015-Jun-18 06:33N 38°26' W 010°07'1515.1
2015-Jun-18 05:33N 38°41' W 010°12'1515.1
2015-Jun-18 04:33N 38°56' W 010°12'1514.9
2015-Jun-18 03:32N 39°11' W 010°12'1514.9
2015-Jun-18 02:33N 39°26' W 010°11'1515.4
2015-Jun-18 01:33N 39°42' W 010°11'1615.4
2015-Jun-18 00:33N 39°57' W 010°11'1615.6
2015-Jun-17 23:33N 40°13' W 010°11'1515.4
2015-Jun-17 22:33N 40°28' W 010°11'1515.1
2015-Jun-17 21:33N 40°43' W 010°11'1615.6
2015-Jun-17 20:33N 40°59' W 010°12'1515.3
2015-Jun-17 19:33N 41°14' W 010°12'1615.4
2015-Jun-17 18:32N 41°29' W 010°11'1515.1
2015-Jun-17 17:31N 41°45' W 010°12'1515.0
2015-Jun-17 16:33N 41°59' W 010°11'47014.6
2015-Jun-16 08:24N 49°04' W 005°20'1413.4
2015-Jun-16 07:23N 49°10' W 005°02'1613.1
2015-Jun-16 06:11N 49°19' W 004°42'2211.9
2015-Jun-16 04:22N 49°30' W 004°13'4213.3
2015-Jun-16 01:12N 49°52' W 003°18'1015.3
2015-Jun-16 00:32N 49°57' W 003°04'1515.3
2015-Jun-15 23:31N 50°02' W 002°41'1414.6
2015-Jun-15 22:33N 50°05' W 002°20'1412.9
2015-Jun-15 21:30N 50°09' W 001°59'1010.9
2015-Jun-15 20:32N 50°12' W 001°44'2410.1
2015-Jun-15 18:12N 50°18' W 001°08'711.1
2015-Jun-15 17:33N 50°20' W 000°58'1312.8
2015-Jun-15 16:33N 50°23' W 000°38'1414.1
2015-Jun-15 15:33N 50°27' W 000°17'1714.8
2015-Jun-15 14:24N 50°32' E 000°09'1214.8
2015-Jun-15 13:33N 50°35' E 000°28'1414.1
2015-Jun-15 12:33N 50°41' E 000°48'1412.8
2015-Jun-15 11:30N 50°49' E 001°06'1111.6
2015-Jun-15 10:33N 50°56' E 001°19'1111.6
2015-Jun-15 09:33N 51°04' E 001°32'1313.0
2015-Jun-15 08:33N 51°14' E 001°46'1515.0
2015-Jun-15 07:33N 51°27' E 001°57'1515.3
2015-Jun-15 06:33N 51°39' E 002°13'1614.8
2015-Jun-15 05:30N 51°50' E 002°30'1313.5
2015-Jun-15 04:34N 52°03' E 002°31'1712.6
2015-Jun-15 03:14N 52°18' E 002°43'4210.7
2015-Jun-14 23:18N 52°31' E 003°49'1013.3
2015-Jun-14 22:33N 52°31' E 004°05'1312.5
2015-Jun-14 21:33N 52°29' E 004°25'7 7.1
2015-Jun-14 20:34N 52°28' E 004°37'5 4.7
2015-Jun-14 19:34N 52°26' E 004°43'3 2.6
2015-Jun-14 18:33N 52°24' E 004°46'0 0.0
2015-Jun-14 17:33N 52°24' E 004°46'0 0.0
2015-Jun-14 16:33N 52°24' E 004°46'0 0.0
2015-Jun-14 15:33N 52°24' E 004°46'0 0.0
2015-Jun-14 14:33N 52°24' E 004°46'0 0.0
2015-Jun-14 13:33N 52°24' E 004°46'0 0.0
2015-Jun-14 12:33N 52°24' E 004°46'0 0.0
2015-Jun-14 11:33N 52°24' E 004°46'0 0.0
2015-Jun-14 10:33N 52°24' E 004°46'0 0.0
2015-Jun-14 09:33N 52°24' E 004°46'0 0.0
2015-Jun-14 08:30N 52°24' E 004°46'0 0.0
2015-Jun-14 07:33N 52°24' E 004°46'0 0.0
2015-Jun-14 06:33N 52°24' E 004°46'0 0.0
2015-Jun-14 05:33N 52°24' E 004°46'0 0.0
2015-Jun-14 04:33N 52°24' E 004°46'0 0.0
2015-Jun-14 03:33N 52°24' E 004°46'0 0.0
2015-Jun-14 01:33N 52°24' E 004°46'0 0.0
2015-Jun-14 00:30N 52°24' E 004°46'0 0.0
2015-Jun-13 23:33N 52°24' E 004°46'0 0.0
2015-Jun-13 22:33N 52°24' E 004°46'0 0.0
2015-Jun-13 21:33N 52°24' E 004°46'0 0.0
2015-Jun-13 20:33N 52°24' E 004°46'0 0.0
2015-Jun-13 19:33N 52°24' E 004°46'0 0.0
2015-Jun-13 18:33N 52°24' E 004°46'0 0.0
2015-Jun-13 17:33N 52°24' E 004°46'0 0.0
2015-Jun-13 16:33N 52°24' E 004°46'0 0.0
2015-Jun-13 15:33N 52°24' E 004°46'0 0.0
2015-Jun-13 14:33N 52°24' E 004°46'0 0.0
2015-Jun-13 13:33N 52°24' E 004°46'0 0.0
2015-Jun-13 12:33N 52°24' E 004°46'0 0.0
2015-Jun-13 11:33N 52°24' E 004°46'0 0.0
2015-Jun-13 10:33N 52°24' E 004°46'0 0.0
2015-Jun-13 09:33N 52°24' E 004°46'0 0.0
2015-Jun-13 08:33N 52°24' E 004°46'0 0.0
2015-Jun-13 07:33N 52°24' E 004°46'0 0.0
2015-Jun-13 06:33N 52°24' E 004°46'0 0.0
2015-Jun-13 05:33N 52°24' E 004°46'0 0.0
2015-Jun-13 04:33N 52°24' E 004°46'0 0.0
2015-Jun-13 03:33N 52°24' E 004°46'0 0.0
2015-Jun-13 02:33N 52°24' E 004°46'0 0.0
2015-Jun-13 01:33N 52°24' E 004°46'0 0.0
2015-Jun-13 00:33N 52°24' E 004°46'0 0.0
2015-Jun-12 23:33N 52°24' E 004°46'0 0.0
2015-Jun-12 22:33N 52°24' E 004°46'0 0.0
2015-Jun-12 21:33N 52°24' E 004°46'0 0.0
2015-Jun-12 20:33N 52°24' E 004°46'0 0.0
2015-Jun-12 19:33N 52°24' E 004°46'0 0.0
2015-Jun-12 18:33N 52°24' E 004°46'0 0.0
2015-Jun-12 17:33N 52°24' E 004°46'0 0.0
2015-Jun-12 16:33N 52°24' E 004°46'0 0.0
2015-Jun-12 15:33N 52°24' E 004°46'0 0.0
2015-Jun-12 14:33N 52°24' E 004°46'0 0.0
2015-Jun-12 13:33N 52°24' E 004°46'0 0.0
2015-Jun-12 12:33N 52°24' E 004°46'0 0.0
2015-Jun-12 11:33N 52°24' E 004°46'0 0.0
2015-Jun-12 10:33N 52°24' E 004°46'0 0.0
2015-Jun-12 09:33N 52°24' E 004°46'0 0.0
2015-Jun-12 08:33N 52°24' E 004°46'0 0.0
2015-Jun-12 07:33N 52°24' E 004°46'0 0.0
2015-Jun-12 06:33N 52°24' E 004°46'0 0.0
2015-Jun-12 05:33N 52°24' E 004°46'0 0.0
2015-Jun-12 04:33N 52°24' E 004°46'0 0.0
2015-Jun-12 03:33N 52°24' E 004°46'0 0.0
2015-Jun-12 02:33N 52°24' E 004°46'0 0.0
2015-Jun-12 01:33N 52°24' E 004°46'0 0.0
2015-Jun-12 00:33N 52°24' E 004°46'0 0.0
2015-Jun-11 23:33N 52°24' E 004°46'0 0.0
2015-Jun-11 22:33N 52°24' E 004°46'  

Dump ship's entire track history